Time;durP1;ratioP1;P1;durP2;ratioP2;P2;SDS_P1;SDS_P2;PMS_P1;PMS_P2;Temp;Humidity;BMP_temperature;BMP_pressure;BME280_temperature;BME280_humidity;BME280_pressure;Samples;Min_cycle;Max_cycle;Signal;HPM_P1;HPM_P2
2020/12/09 00:00:17;;;;;;;14.52;11.50;;;;;;;;;;6262754;28;20106;-70
2020/12/09 00:03:18;;;;;;;13.20;10.70;;;;;;;;;;6259275;28;20101;-71
2020/12/09 00:06:19;;;;;;;12.70;9.90;;;;;;;;;;6257696;28;20127;-71
2020/12/09 00:09:20;;;;;;;11.52;9.23;;;;;;;;;;6262124;28;20480;-71
2020/12/09 00:12:22;;;;;;;11.75;9.45;;;;;;;;;;6259566;28;20187;-69
2020/12/09 00:15:23;;;;;;;12.32;9.82;;;;;;;;;;6255709;28;20184;-69
2020/12/09 00:18:24;;;;;;;11.30;9.65;;;;;;;;;;6241496;28;20126;-70
2020/12/09 00:21:26;;;;;;;12.18;9.20;;;;;;;;;;6251655;28;20496;-71
2020/12/09 00:24:27;;;;;;;11.55;9.85;;;;;;;;;;6254986;28;20550;-72
2020/12/09 00:27:29;;;;;;;9.25;7.68;;;;;;;;;;6265383;28;20144;-71
2020/12/09 00:30:30;;;;;;;8.38;7.13;;;;;;;;;;6253799;28;20058;-69
2020/12/09 00:33:31;;;;;;;9.02;6.90;;;;;;;;;;6249810;28;20554;-72
2020/12/09 00:36:32;;;;;;;9.05;7.10;;;;;;;;;;6255414;28;20052;-69
2020/12/09 00:39:33;;;;;;;8.25;6.63;;;;;;;;;;6255139;28;20094;-70
2020/12/09 00:42:35;;;;;;;7.70;6.82;;;;;;;;;;6275861;28;20103;-70
2020/12/09 00:45:36;;;;;;;7.97;6.88;;;;;;;;;;6257592;28;20114;-69
2020/12/09 00:48:37;;;;;;;9.02;7.40;;;;;;;;;;6251591;28;20202;-72
2020/12/09 00:51:38;;;;;;;8.95;6.95;;;;;;;;;;6258343;28;20136;-71
2020/12/09 00:54:39;;;;;;;8.50;7.25;;;;;;;;;;6253752;28;20053;-71
2020/12/09 00:57:41;;;;;;;8.80;6.97;;;;;;;;;;6252722;28;20061;-70
2020/12/09 01:00:42;;;;;;;7.93;6.78;;;;;;;;;;6258653;28;20049;-75
2020/12/09 01:03:46;;;;;;;8.13;6.75;;;;;;;;;;6263985;28;20175;-74
2020/12/09 01:06:47;;;;;;;7.57;6.55;;;;;;;;;;6261746;28;20060;-71
2020/12/09 01:09:48;;;;;;;7.10;5.93;;;;;;;;;;6260705;28;20502;-69
2020/12/09 01:12:50;;;;;;;7.65;6.85;;;;;;;;;;6263938;28;20172;-70
2020/12/09 01:15:51;;;;;;;8.20;6.80;;;;;;;;;;6258363;28;20541;-71
2020/12/09 01:18:52;;;;;;;7.60;6.45;;;;;;;;;;6279559;28;20626;-72
2020/12/09 01:21:54;;;;;;;7.72;6.70;;;;;;;;;;6285877;28;20392;-71
2020/12/09 01:24:55;;;;;;;8.43;7.32;;;;;;;;;;6268593;28;20740;-70
2020/12/09 01:27:59;;;;;;;10.18;7.57;;;;;;;;;;6264340;28;20201;-70
2020/12/09 01:31:00;;;;;;;9.15;7.82;;;;;;;;;;6282381;28;20066;-69
2020/12/09 01:34:01;;;;;;;10.38;7.55;;;;;;;;;;6285483;28;20044;-71
2020/12/09 01:37:03;;;;;;;9.25;7.65;;;;;;;;;;6266843;28;20146;-72
2020/12/09 01:40:04;;;;;;;9.90;8.13;;;;;;;;;;6263940;28;20041;-69
2020/12/09 01:43:06;;;;;;;9.85;8.27;;;;;;;;;;6268825;28;20127;-71
2020/12/09 01:46:11;;;;;;;10.43;8.60;;;;;;;;;;6259973;28;20093;-72
2020/12/09 01:49:13;;;;;;;10.95;9.38;;;;;;;;;;6259576;28;20094;-69
2020/12/09 01:52:15;;;;;;;12.18;10.68;;;;;;;;;;6253871;28;20041;-70
2020/12/09 01:55:16;;;;;;;14.63;11.23;;;;;;;;;;6264594;28;20049;-69
2020/12/09 01:58:18;;;;;;;15.05;12.40;;;;;;;;;;6269659;28;20041;-69
2020/12/09 02:01:20;;;;;;;14.32;12.32;;;;;;;;;;6262859;28;20183;-71
2020/12/09 02:04:21;;;;;;;17.02;13.18;;;;;;;;;;6265561;28;20053;-68
2020/12/09 02:07:23;;;;;;;18.42;13.48;;;;;;;;;;6263515;28;20428;-70
2020/12/09 02:10:24;;;;;;;15.25;13.65;;;;;;;;;;6266450;28;20132;-68
2020/12/09 02:13:26;;;;;;;16.27;14.30;;;;;;;;;;6257962;28;20187;-72
2020/12/09 02:16:27;;;;;;;16.20;13.98;;;;;;;;;;6248969;28;20128;-70
2020/12/09 02:19:28;;;;;;;17.15;15.05;;;;;;;;;;6260738;28;20144;-69
2020/12/09 02:22:30;;;;;;;18.05;14.95;;;;;;;;;;6263076;28;20053;-67
2020/12/09 02:25:31;;;;;;;17.98;14.45;;;;;;;;;;6258295;28;20504;-67
2020/12/09 02:28:32;;;;;;;19.60;15.90;;;;;;;;;;6258060;28;20056;-67
2020/12/09 02:31:33;;;;;;;20.02;14.93;;;;;;;;;;6256722;28;20053;-70
2020/12/09 02:34:34;;;;;;;23.27;15.60;;;;;;;;;;6257872;28;20135;-68
2020/12/09 02:37:36;;;;;;;15.55;13.43;;;;;;;;;;6254590;28;20045;-69
2020/12/09 02:40:38;;;;;;;17.38;14.68;;;;;;;;;;6260622;28;20393;-68
2020/12/09 02:43:39;;;;;;;17.20;14.23;;;;;;;;;;6275748;28;20075;-68
2020/12/09 02:46:40;;;;;;;17.25;14.18;;;;;;;;;;6256437;28;20050;-69
2020/12/09 02:49:41;;;;;;;16.27;12.60;;;;;;;;;;6256577;28;20304;-67
2020/12/09 02:52:43;;;;;;;15.60;12.05;;;;;;;;;;6255017;28;20049;-68
2020/12/09 02:55:44;;;;;;;12.88;11.02;;;;;;;;;;6254603;28;20633;-68
2020/12/09 02:58:45;;;;;;;13.30;10.98;;;;;;;;;;6257342;28;20404;-70
2020/12/09 03:01:46;;;;;;;13.68;10.95;;;;;;;;;;6251723;28;20086;-68
2020/12/09 03:04:47;;;;;;;13.32;11.30;;;;;;;;;;6257590;28;20106;-68
2020/12/09 03:07:49;;;;;;;14.50;11.32;;;;;;;;;;6253603;28;20526;-70
2020/12/09 03:10:50;;;;;;;13.75;11.43;;;;;;;;;;6256013;28;20052;-68
2020/12/09 03:13:51;;;;;;;13.27;11.48;;;;;;;;;;6248165;28;20099;-71
2020/12/09 03:16:52;;;;;;;14.88;12.13;;;;;;;;;;6262701;28;20049;-68
2020/12/09 03:19:55;;;;;;;13.85;11.02;;;;;;;;;;6257717;28;20057;-68
2020/12/09 03:22:56;;;;;;;12.52;10.93;;;;;;;;;;6254558;28;20052;-69
2020/12/09 03:25:57;;;;;;;13.50;10.63;;;;;;;;;;6253310;28;20045;-68
2020/12/09 03:28:58;;;;;;;11.38;10.10;;;;;;;;;;6256774;28;20055;-69
2020/12/09 03:32:00;;;;;;;13.35;10.40;;;;;;;;;;6257378;28;20127;-68
2020/12/09 03:35:01;;;;;;;13.85;10.43;;;;;;;;;;6260122;28;20124;-68
2020/12/09 03:38:03;;;;;;;13.93;11.13;;;;;;;;;;6256241;28;20106;-68
2020/12/09 03:41:04;;;;;;;15.18;11.63;;;;;;;;;;6256115;28;20049;-68
2020/12/09 03:44:05;;;;;;;12.48;10.95;;;;;;;;;;6256574;28;20045;-69
2020/12/09 03:47:06;;;;;;;12.65;10.55;;;;;;;;;;6254049;28;20523;-71
2020/12/09 03:50:08;;;;;;;13.80;10.93;;;;;;;;;;6256726;28;20143;-68
2020/12/09 03:53:10;;;;;;;13.05;10.45;;;;;;;;;;6255865;28;20128;-69
2020/12/09 03:56:11;;;;;;;12.18;10.73;;;;;;;;;;6252303;28;20098;-69
2020/12/09 03:59:12;;;;;;;11.55;9.90;;;;;;;;;;6249007;28;20045;-68
2020/12/09 04:02:13;;;;;;;12.18;10.30;;;;;;;;;;6265613;28;20609;-70
2020/12/09 04:05:14;;;;;;;11.38;10.18;;;;;;;;;;6270082;28;20044;-69
2020/12/09 04:08:16;;;;;;;12.07;10.30;;;;;;;;;;6256993;28;20094;-67
2020/12/09 04:11:17;;;;;;;12.90;11.30;;;;;;;;;;6256847;28;20053;-68
2020/12/09 04:14:18;;;;;;;13.05;11.07;;;;;;;;;;6254176;28;20094;-68
2020/12/09 04:17:20;;;;;;;11.93;10.52;;;;;;;;;;6274415;28;20181;-68
2020/12/09 04:20:21;;;;;;;14.55;10.93;;;;;;;;;;6277469;28;20127;-71
2020/12/09 04:23:22;;;;;;;12.85;11.48;;;;;;;;;;6281882;28;20097;-68
2020/12/09 04:26:24;;;;;;;14.15;11.98;;;;;;;;;;6262390;28;20140;-70
2020/12/09 04:29:25;;;;;;;12.85;11.18;;;;;;;;;;6258695;28;20124;-70
2020/12/09 04:32:26;;;;;;;13.68;11.32;;;;;;;;;;6260910;28;20049;-68
2020/12/09 04:35:27;;;;;;;13.52;11.30;;;;;;;;;;6256894;28;20045;-69
2020/12/09 04:38:29;;;;;;;12.93;10.88;;;;;;;;;;6252183;28;20474;-67
2020/12/09 04:41:30;;;;;;;15.60;11.23;;;;;;;;;;6254344;28;20101;-69
2020/12/09 04:44:31;;;;;;;12.00;10.02;;;;;;;;;;6256860;28;20176;-68
2020/12/09 04:47:42;;;;;;;12.85;10.27;;;;;;;;;;6255413;28;20045;-68
2020/12/09 04:50:58;;;;;;;12.48;11.02;;;;;;;;;;6261501;28;20122;-68
2020/12/09 04:54:01;;;;;;;11.63;10.10;;;;;;;;;;6253404;28;20053;-69
2020/12/09 04:57:08;;;;;;;12.80;11.07;;;;;;;;;;6255194;28;20045;-69
2020/12/09 05:00:11;;;;;;;12.50;10.10;;;;;;;;;;6256889;28;20136;-68
2020/12/09 05:03:17;;;;;;;13.65;10.75;;;;;;;;;;6256696;28;20060;-69
2020/12/09 05:06:19;;;;;;;13.15;11.30;;;;;;;;;;6260503;28;20095;-69
2020/12/09 05:09:25;;;;;;;13.63;11.55;;;;;;;;;;6263797;28;20124;-69
2020/12/09 05:12:26;;;;;;;14.07;11.30;;;;;;;;;;6262945;28;20037;-69
2020/12/09 05:15:28;;;;;;;14.20;11.52;;;;;;;;;;6259610;28;20136;-68
2020/12/09 05:18:40;;;;;;;14.07;10.90;;;;;;;;;;6288578;28;20111;-69
2020/12/09 05:21:45;;;;;;;14.50;11.25;;;;;;;;;;6281811;28;20442;-70
2020/12/09 05:24:47;;;;;;;15.43;12.40;;;;;;;;;;6276730;28;20044;-68
2020/12/09 05:27:48;;;;;;;13.93;11.63;;;;;;;;;;6280570;28;20413;-70
2020/12/09 05:30:51;;;;;;;13.98;11.68;;;;;;;;;;6280259;28;20155;-69
2020/12/09 05:33:53;;;;;;;14.30;11.90;;;;;;;;;;6285374;28;20408;-71
2020/12/09 05:36:55;;;;;;;14.25;11.73;;;;;;;;;;6286573;28;20052;-69
2020/12/09 05:39:57;;;;;;;14.27;11.27;;;;;;;;;;6285000;28;20182;-68
2020/12/09 05:42:58;;;;;;;13.70;11.48;;;;;;;;;;6282716;28;20048;-71
2020/12/09 05:46:06;;;;;;;13.93;11.68;;;;;;;;;;6283550;28;20123;-71
2020/12/09 05:49:19;;;;;;;15.23;11.30;;;;;;;;;;6257419;28;20547;-68
2020/12/09 05:52:21;;;;;;;12.93;11.10;;;;;;;;;;6259553;28;21504;-69
2020/12/09 05:55:23;;;;;;;13.57;11.88;;;;;;;;;;6258415;28;20053;-69
2020/12/09 05:58:26;;;;;;;12.93;11.30;;;;;;;;;;6254362;28;20099;-68
2020/12/09 06:01:27;;;;;;;12.50;10.88;;;;;;;;;;6259299;28;20045;-68
2020/12/09 06:04:46;;;;;;;11.63;10.20;;;;;;;;;;6253055;28;20148;-69
2020/12/09 06:07:47;;;;;;;11.82;9.88;;;;;;;;;;6283002;28;20179;-68
2020/12/09 06:11:00;;;;;;;12.10;9.93;;;;;;;;;;6285482;28;20044;-68
2020/12/09 06:14:01;;;;;;;12.50;10.88;;;;;;;;;;6283686;28;20052;-69
2020/12/09 06:17:02;;;;;;;13.50;10.85;;;;;;;;;;6281941;28;20442;-69
2020/12/09 06:20:03;;;;;;;13.32;11.75;;;;;;;;;;6282774;28;21819;-68
2020/12/09 06:23:09;;;;;;;15.55;12.25;;;;;;;;;;6272635;28;20102;-69
2020/12/09 06:26:11;;;;;;;18.25;13.25;;;;;;;;;;6259720;28;20045;-68
2020/12/09 06:29:12;;;;;;;17.67;13.85;;;;;;;;;;6255676;28;20079;-67
2020/12/09 06:32:13;;;;;;;18.50;15.00;;;;;;;;;;6255496;28;20037;-68
2020/12/09 06:35:18;;;;;;;18.73;14.43;;;;;;;;;;6258656;28;20098;-71
2020/12/09 06:38:19;;;;;;;16.60;13.90;;;;;;;;;;6254873;28;20560;-67
2020/12/09 06:41:21;;;;;;;18.67;14.40;;;;;;;;;;6266354;28;20064;-68
2020/12/09 06:44:24;;;;;;;21.35;18.67;;;;;;;;;;6259166;28;20048;-67
2020/12/09 06:47:25;;;;;;;23.42;16.80;;;;;;;;;;6254826;28;20056;-67
2020/12/09 06:50:29;;;;;;;23.15;17.90;;;;;;;;;;6259122;28;20081;-68
2020/12/09 06:53:30;;;;;;;25.75;21.90;;;;;;;;;;6256645;28;20079;-67
2020/12/09 06:56:32;;;;;;;24.98;18.92;;;;;;;;;;6256194;28;20167;-67
2020/12/09 06:59:33;;;;;;;23.80;19.40;;;;;;;;;;6260748;28;20044;-69
2020/12/09 07:02:34;;;;;;;22.98;18.52;;;;;;;;;;6258338;28;20209;-69
2020/12/09 07:05:35;;;;;;;23.27;18.88;;;;;;;;;;6259805;28;20075;-68
2020/12/09 07:08:44;;;;;;;22.50;18.23;;;;;;;;;;6258519;28;20098;-69
2020/12/09 07:11:55;;;;;;;25.08;19.90;;;;;;;;;;6263530;28;20133;-71
2020/12/09 07:14:57;;;;;;;23.17;18.73;;;;;;;;;;6263768;28;20094;-66
2020/12/09 07:17:58;;;;;;;23.35;19.35;;;;;;;;;;6254842;28;20388;-67
2020/12/09 07:20:59;;;;;;;21.77;19.38;;;;;;;;;;6254726;28;20134;-67
2020/12/09 07:24:00;;;;;;;21.35;15.95;;;;;;;;;;6260614;28;20124;-67
2020/12/09 07:27:02;;;;;;;21.23;15.07;;;;;;;;;;6255933;28;20199;-68
2020/12/09 07:30:06;;;;;;;24.00;16.45;;;;;;;;;;6261109;28;20673;-68
2020/12/09 07:33:07;;;;;;;;;;;;;;;;;;6254112;28;20048;-68
2020/12/09 07:36:10;;;;;;;23.60;16.92;;;;;;;;;;6254862;28;19929;-69
2020/12/09 07:39:11;;;;;;;24.50;15.65;;;;;;;;;;6256838;28;20049;-69
2020/12/09 07:42:13;;;;;;;19.63;15.40;;;;;;;;;;6251885;28;20126;-70
2020/12/09 07:45:16;;;;;;;21.67;16.38;;;;;;;;;;6253250;28;20053;-69
2020/12/09 07:48:19;;;;;;;24.17;15.95;;;;;;;;;;6254545;28;20051;-69
2020/12/09 07:51:28;;;;;;;19.67;15.13;;;;;;;;;;6248006;28;20595;-68
2020/12/09 07:54:29;;;;;;;22.83;16.30;;;;;;;;;;6256604;28;20137;-70
2020/12/09 07:57:32;;;;;;;20.60;16.65;;;;;;;;;;6252689;28;20141;-69
2020/12/09 08:00:36;;;;;;;23.15;17.23;;;;;;;;;;6260731;28;20489;-71
2020/12/09 08:03:39;;;;;;;26.90;18.67;;;;;;;;;;6262316;28;20060;-69
2020/12/09 08:06:40;;;;;;;26.27;19.37;;;;;;;;;;6259629;28;20464;-71
2020/12/09 08:09:41;;;;;;;24.67;18.27;;;;;;;;;;6258138;28;20635;-70
2020/12/09 08:12:43;;;;;;;25.50;18.83;;;;;;;;;;6258399;28;20131;-70
2020/12/09 08:15:45;;;;;;;25.58;19.52;;;;;;;;;;6258919;28;20156;-70
2020/12/09 08:18:47;;;;;;;24.23;18.20;;;;;;;;;;6256105;28;20194;-69
2020/12/09 08:21:48;;;;;;;24.38;19.13;;;;;;;;;;6255326;28;20425;-69
2020/12/09 08:25:04;;;;;;;25.48;19.42;;;;;;;;;;6257853;28;20505;-68
2020/12/09 08:28:06;;;;;;;24.58;19.13;;;;;;;;;;6260206;28;20057;-69
2020/12/09 08:31:19;;;;;;;26.15;18.95;;;;;;;;;;6261453;28;20045;-68
2020/12/09 08:34:20;;;;;;;26.63;19.17;;;;;;;;;;6264625;28;20480;-69
2020/12/09 08:37:21;;;;;;;27.15;21.38;;;;;;;;;;6291247;28;20052;-69
2020/12/09 08:40:22;;;;;;;26.23;18.75;;;;;;;;;;6281414;28;20045;-69
2020/12/09 08:43:25;;;;;;;28.42;19.92;;;;;;;;;;6266873;28;20064;-69
2020/12/09 08:46:27;;;;;;;26.30;19.02;;;;;;;;;;6266349;28;20183;-70
2020/12/09 08:49:28;;;;;;;29.05;19.85;;;;;;;;;;6265559;28;20704;-69
2020/12/09 08:52:29;;;;;;;24.27;18.70;;;;;;;;;;6264863;28;20396;-69
2020/12/09 08:55:30;;;;;;;28.23;20.08;;;;;;;;;;6270873;28;20049;-69
2020/12/09 08:58:32;;;;;;;29.52;20.80;;;;;;;;;;6267856;28;20063;-68
2020/12/09 09:01:36;;;;;;;25.13;19.05;;;;;;;;;;6265722;28;20178;-70
2020/12/09 09:04:39;;;;;;;30.20;20.30;;;;;;;;;;6269706;28;20416;-69
2020/12/09 09:07:40;;;;;;;28.30;18.88;;;;;;;;;;6267626;28;20048;-68
2020/12/09 09:10:42;;;;;;;26.02;19.05;;;;;;;;;;6266666;28;20124;-69
2020/12/09 09:13:44;;;;;;;29.30;20.48;;;;;;;;;;6267212;28;20068;-68
2020/12/09 09:16:45;;;;;;;29.63;20.77;;;;;;;;;;6264902;28;20136;-69
2020/12/09 09:19:46;;;;;;;27.45;19.42;;;;;;;;;;6263386;28;20144;-69
2020/12/09 09:22:47;;;;;;;31.75;19.73;;;;;;;;;;6265509;28;20496;-69
2020/12/09 09:25:48;;;;;;;28.15;19.77;;;;;;;;;;6263526;28;20526;-70
2020/12/09 09:28:50;;;;;;;32.17;22.42;;;;;;;;;;6263633;28;20466;-71
2020/12/09 09:31:51;;;;;;;29.73;20.15;;;;;;;;;;6264607;28;20045;-70
2020/12/09 09:34:53;;;;;;;29.00;20.08;;;;;;;;;;6266294;28;20128;-69
2020/12/09 09:37:54;;;;;;;35.85;21.40;;;;;;;;;;6266334;28;20041;-70
2020/12/09 09:40:55;;;;;;;31.70;21.67;;;;;;;;;;6267704;28;20123;-70
2020/12/09 09:43:57;;;;;;;30.00;19.67;;;;;;;;;;6268527;28;20045;-68
2020/12/09 09:46:58;;;;;;;30.02;21.58;;;;;;;;;;6287432;28;20488;-68
2020/12/09 09:50:00;;;;;;;31.17;21.13;;;;;;;;;;6294190;28;20123;-71
2020/12/09 09:53:01;;;;;;;30.33;20.02;;;;;;;;;;6294976;28;20185;-70
2020/12/09 09:56:05;;;;;;;26.23;18.98;;;;;;;;;;6298334;28;20095;-71
2020/12/09 09:59:07;;;;;;;;;;;;;;;;;;6294656;28;20048;-72
2020/12/09 10:02:08;;;;;;;29.48;20.17;;;;;;;;;;6290075;28;19965;-72
2020/12/09 10:05:09;;;;;;;30.45;22.73;;;;;;;;;;6296879;28;20120;-71
2020/12/09 10:08:11;;;;;;;29.27;20.13;;;;;;;;;;6285156;28;20061;-78
2020/12/09 10:11:12;;;;;;;29.25;20.90;;;;;;;;;;6286289;28;20810;-70
2020/12/09 10:14:14;;;;;;;25.33;18.42;;;;;;;;;;6284912;28;20135;-71
2020/12/09 10:17:15;;;;;;;28.25;18.90;;;;;;;;;;6289186;28;20044;-72
2020/12/09 10:20:16;;;;;;;27.85;19.90;;;;;;;;;;6289744;28;20135;-71
2020/12/09 10:23:17;;;;;;;27.17;20.00;;;;;;;;;;6290835;28;20779;-69
2020/12/09 10:26:19;;;;;;;26.90;19.70;;;;;;;;;;6292663;28;20037;-73
2020/12/09 10:29:21;;;;;;;25.08;18.52;;;;;;;;;;6290776;28;20660;-72
2020/12/09 10:32:23;;;;;;;24.95;18.05;;;;;;;;;;6286858;28;20048;-70
2020/12/09 10:35:24;;;;;;;28.02;19.70;;;;;;;;;;6286397;28;20202;-72
2020/12/09 10:38:25;;;;;;;28.73;20.17;;;;;;;;;;6289903;28;20048;-69
2020/12/09 10:41:26;;;;;;;27.23;19.02;;;;;;;;;;6296717;28;20131;-71
2020/12/09 10:44:28;;;;;;;27.27;20.38;;;;;;;;;;6290370;28;20179;-70
2020/12/09 10:47:30;;;;;;;25.75;18.98;;;;;;;;;;6277763;28;20052;-73
2020/12/09 10:50:31;;;;;;;27.63;20.23;;;;;;;;;;6283736;28;20044;-70
2020/12/09 10:53:32;;;;;;;28.75;19.35;;;;;;;;;;6279173;28;20158;-72
2020/12/09 10:56:33;;;;;;;31.00;19.35;;;;;;;;;;6281371;28;20588;-72
2020/12/09 10:59:35;;;;;;;28.98;21.27;;;;;;;;;;6281880;28;20155;-69
2020/12/09 11:02:36;;;;;;;30.95;19.67;;;;;;;;;;6282433;28;20201;-70
2020/12/09 11:05:38;;;;;;;27.45;18.83;;;;;;;;;;6273678;28;20052;-72
2020/12/09 11:08:39;;;;;;;25.52;18.27;;;;;;;;;;6254004;28;20049;-69
2020/12/09 11:11:45;;;;;;;23.83;17.67;;;;;;;;;;6266959;28;20101;-69
2020/12/09 11:14:49;;;;;;;27.02;19.60;;;;;;;;;;6265061;28;20048;-70
2020/12/09 11:17:50;;;;;;;20.60;13.90;;;;;;;;;;6262873;28;20106;-69
2020/12/09 11:20:51;;;;;;;28.58;19.08;;;;;;;;;;6263823;28;20118;-68
2020/12/09 11:23:52;;;;;;;26.98;18.13;;;;;;;;;;6256447;28;20187;-69
2020/12/09 11:26:53;;;;;;;28.10;19.42;;;;;;;;;;6249367;28;20057;-71
2020/12/09 11:29:55;;;;;;;24.48;17.58;;;;;;;;;;6257810;28;20064;-70
2020/12/09 11:32:56;;;;;;;28.33;18.67;;;;;;;;;;6258372;28;20089;-69
2020/12/09 11:35:59;;;;;;;28.60;19.42;;;;;;;;;;6252499;28;20049;-70
2020/12/09 11:39:00;;;;;;;28.63;18.95;;;;;;;;;;6258960;28;20045;-69
2020/12/09 11:42:03;;;;;;;28.08;19.60;;;;;;;;;;6253294;28;20396;-71
2020/12/09 11:45:06;;;;;;;24.05;17.23;;;;;;;;;;6268157;28;20052;-70
2020/12/09 11:48:07;;;;;;;26.83;18.95;;;;;;;;;;6291343;28;20100;-72
2020/12/09 11:51:08;;;;;;;27.48;18.25;;;;;;;;;;6285162;28;20139;-69
2020/12/09 11:54:09;;;;;;;23.42;16.30;;;;;;;;;;6273908;28;20117;-68
2020/12/09 11:57:10;;;;;;;23.23;16.65;;;;;;;;;;6277530;28;21267;-69
2020/12/09 12:00:12;;;;;;;22.27;16.42;;;;;;;;;;6275465;28;20190;-69
2020/12/09 12:03:13;;;;;;;19.13;15.00;;;;;;;;;;6280098;28;20133;-71
2020/12/09 12:06:20;;;;;;;21.58;16.98;;;;;;;;;;6272857;28;20274;-69
2020/12/09 12:09:21;;;;;;;25.33;16.80;;;;;;;;;;6261153;28;20052;-69
2020/12/09 12:12:22;;;;;;;22.00;16.13;;;;;;;;;;6250362;28;20045;-69
2020/12/09 12:15:24;;;;;;;20.88;15.00;;;;;;;;;;6248884;28;20078;-72
2020/12/09 12:18:25;;;;;;;20.33;15.32;;;;;;;;;;6253857;28;20194;-67
2020/12/09 12:21:27;;;;;;;19.38;14.68;;;;;;;;;;6259478;28;20059;-69
2020/12/09 12:24:28;;;;;;;19.95;15.02;;;;;;;;;;6247340;28;20098;-69
2020/12/09 12:27:29;;;;;;;21.73;15.82;;;;;;;;;;6253417;28;20106;-69
2020/12/09 12:30:31;;;;;;;20.67;14.98;;;;;;;;;;6254293;28;20504;-68
2020/12/09 12:33:32;;;;;;;23.30;15.68;;;;;;;;;;6255333;28;20090;-69
2020/12/09 12:36:33;;;;;;;21.33;14.43;;;;;;;;;;6254334;28;20119;-69
2020/12/09 12:39:34;;;;;;;20.33;13.73;;;;;;;;;;6264722;28;20179;-69
2020/12/09 12:42:35;;;;;;;22.45;14.98;;;;;;;;;;6261362;28;20090;-68
2020/12/09 12:45:36;;;;;;;22.45;15.05;;;;;;;;;;6257994;28;20582;-68
2020/12/09 12:48:38;;;;;;;29.10;14.93;;;;;;;;;;6255939;28;20139;-70
2020/12/09 12:51:39;;;;;;;21.88;15.27;;;;;;;;;;6249518;28;20053;-69
2020/12/09 12:54:40;;;;;;;22.67;14.80;;;;;;;;;;6258140;28;20072;-69
2020/12/09 12:57:41;;;;;;;24.60;15.45;;;;;;;;;;6261647;28;20524;-69
2020/12/09 13:00:43;;;;;;;21.08;15.68;;;;;;;;;;6262160;28;20163;-69
2020/12/09 13:03:44;;;;;;;29.33;16.13;;;;;;;;;;6262996;28;20476;-69
2020/12/09 13:06:45;;;;;;;22.98;16.25;;;;;;;;;;6263905;28;20048;-70
2020/12/09 13:09:46;;;;;;;26.00;16.02;;;;;;;;;;6263261;28;20590;-69
2020/12/09 13:12:47;;;;;;;23.15;16.90;;;;;;;;;;6260162;28;20060;-68
2020/12/09 13:15:54;;;;;;;24.15;17.55;;;;;;;;;;6248381;28;20078;-69
2020/12/09 13:18:55;;;;;;;24.33;17.17;;;;;;;;;;6255616;28;20132;-69
2020/12/09 13:21:56;;;;;;;35.95;19.00;;;;;;;;;;6260976;28;20535;-68
2020/12/09 13:24:57;;;;;;;27.95;18.52;;;;;;;;;;6260497;28;20186;-71
2020/12/09 13:27:59;;;;;;;27.15;19.13;;;;;;;;;;6263493;28;20403;-67
2020/12/09 13:31:01;;;;;;;23.23;17.70;;;;;;;;;;6263780;28;20179;-67
2020/12/09 13:34:02;;;;;;;23.90;15.77;;;;;;;;;;6260127;28;20068;-68
2020/12/09 13:37:03;;;;;;;28.30;17.17;;;;;;;;;;6261963;28;20592;-68
2020/12/09 13:40:04;;;;;;;23.35;15.27;;;;;;;;;;6267004;28;20046;-68
2020/12/09 13:43:07;;;;;;;21.25;15.35;;;;;;;;;;6293146;28;20040;-67
2020/12/09 13:46:09;;;;;;;18.85;14.75;;;;;;;;;;6283521;28;20115;-70
2020/12/09 13:49:10;;;;;;;23.17;15.55;;;;;;;;;;6293097;28;20131;-69
2020/12/09 13:52:12;;;;;;;19.23;15.27;;;;;;;;;;6284195;28;20124;-67
2020/12/09 13:55:13;;;;;;;20.35;14.93;;;;;;;;;;6278713;28;20145;-68
2020/12/09 13:58:14;;;;;;;20.38;14.35;;;;;;;;;;6258047;28;20064;-69
2020/12/09 14:01:17;;;;;;;23.25;14.43;;;;;;;;;;6253300;28;20053;-68
2020/12/09 14:04:18;;;;;;;24.98;17.00;;;;;;;;;;6254058;28;20585;-69
2020/12/09 14:07:19;;;;;;;27.60;17.10;;;;;;;;;;6255989;28;20073;-67
2020/12/09 14:10:22;;;;;;;25.08;18.50;;;;;;;;;;6257188;28;20103;-69
2020/12/09 14:13:23;;;;;;;27.27;18.50;;;;;;;;;;6254311;28;20079;-68
2020/12/09 14:16:32;;;;;;;25.92;18.50;;;;;;;;;;6251996;28;20090;-69
2020/12/09 14:19:36;;;;;;;28.38;20.23;;;;;;;;;;6254900;28;21004;-69
2020/12/09 14:22:37;;;;;;;30.42;20.55;;;;;;;;;;6286175;28;20123;-67
2020/12/09 14:25:38;;;;;;;28.40;19.70;;;;;;;;;;6284141;28;20072;-68
2020/12/09 14:28:39;;;;;;;31.48;20.55;;;;;;;;;;6283773;28;20101;-68
2020/12/09 14:31:41;;;;;;;31.88;19.67;;;;;;;;;;6283449;28;20052;-68
2020/12/09 14:34:42;;;;;;;31.02;20.00;;;;;;;;;;6291073;28;20048;-68
2020/12/09 14:37:43;;;;;;;33.38;20.42;;;;;;;;;;6285190;28;20480;-67
2020/12/09 14:40:44;;;;;;;32.88;21.70;;;;;;;;;;6286481;28;20052;-67
2020/12/09 14:43:47;;;;;;;33.67;21.65;;;;;;;;;;6286763;28;20069;-68
2020/12/09 14:46:49;;;;;;;35.25;22.63;;;;;;;;;;6280982;28;20056;-68
2020/12/09 14:49:51;;;;;;;37.75;23.30;;;;;;;;;;6285049;28;20683;-69
2020/12/09 14:52:52;;;;;;;39.58;23.52;;;;;;;;;;6291963;28;20067;-69
2020/12/09 14:55:53;;;;;;;58.17;28.92;;;;;;;;;;6288593;28;20064;-70
2020/12/09 14:58:54;;;;;;;35.53;24.83;;;;;;;;;;6284211;28;20132;-68
2020/12/09 15:01:56;;;;;;;32.47;22.48;;;;;;;;;;6289722;28;20083;-68
2020/12/09 15:04:57;;;;;;;37.22;22.45;;;;;;;;;;6279471;28;20414;-68
2020/12/09 15:07:58;;;;;;;38.35;22.67;;;;;;;;;;6286174;28;20134;-69
2020/12/09 15:10:59;;;;;;;35.53;22.75;;;;;;;;;;6287691;28;20151;-69
2020/12/09 15:14:00;;;;;;;31.80;21.75;;;;;;;;;;6272125;28;20044;-69
2020/12/09 15:17:02;;;;;;;33.15;22.88;;;;;;;;;;6266826;28;20064;-69
2020/12/09 15:20:04;;;;;;;34.80;22.88;;;;;;;;;;6268645;28;20045;-71
2020/12/09 15:23:05;;;;;;;30.08;21.02;;;;;;;;;;6260276;28;20784;-70
2020/12/09 15:26:06;;;;;;;29.38;21.13;;;;;;;;;;6249536;28;20054;-69
2020/12/09 15:29:07;;;;;;;31.60;21.63;;;;;;;;;;6259755;28;20073;-68
2020/12/09 15:32:09;;;;;;;32.75;21.23;;;;;;;;;;6255048;28;20090;-71
2020/12/09 15:35:11;;;;;;;30.65;22.05;;;;;;;;;;6259748;28;20167;-68
2020/12/09 15:38:12;;;;;;;30.42;20.25;;;;;;;;;;6263695;28;20048;-70
2020/12/09 15:41:13;;;;;;;29.33;19.70;;;;;;;;;;6265235;28;20045;-70
2020/12/09 15:44:14;;;;;;;30.98;19.70;;;;;;;;;;6263364;28;20053;-70
2020/12/09 15:47:16;;;;;;;26.98;19.65;;;;;;;;;;6263628;28;20071;-70
2020/12/09 15:50:18;;;;;;;25.27;18.83;;;;;;;;;;6264487;28;20412;-71
2020/12/09 15:53:20;;;;;;;25.38;18.33;;;;;;;;;;6252906;28;20454;-69
2020/12/09 15:56:21;;;;;;;26.60;19.45;;;;;;;;;;6259361;28;20132;-69
2020/12/09 15:59:22;;;;;;;28.60;19.88;;;;;;;;;;6262065;28;20087;-71
2020/12/09 16:02:27;;;;;;;25.95;19.55;;;;;;;;;;6256581;28;20689;-71
2020/12/09 16:05:28;;;;;;;28.23;20.17;;;;;;;;;;6258245;28;20045;-70
2020/12/09 16:08:29;;;;;;;28.08;20.50;;;;;;;;;;6261240;28;20048;-70
2020/12/09 16:11:30;;;;;;;28.95;21.02;;;;;;;;;;6260225;28;20187;-71
2020/12/09 16:14:31;;;;;;;34.00;21.48;;;;;;;;;;6259325;28;20579;-70
2020/12/09 16:17:34;;;;;;;26.65;20.13;;;;;;;;;;6255320;28;20529;-68
2020/12/09 16:20:35;;;;;;;28.77;21.52;;;;;;;;;;6259734;28;20442;-68
2020/12/09 16:23:39;;;;;;;29.42;20.52;;;;;;;;;;6274322;28;20517;-71
2020/12/09 16:26:40;;;;;;;28.42;20.80;;;;;;;;;;6260696;28;20041;-72
2020/12/09 16:29:42;;;;;;;30.75;21.80;;;;;;;;;;6257054;28;20128;-70
2020/12/09 16:32:46;;;;;;;28.92;20.90;;;;;;;;;;6256793;28;20120;-71
2020/12/09 16:35:47;;;;;;;31.23;21.55;;;;;;;;;;6242509;28;20610;-69
2020/12/09 16:38:48;;;;;;;32.38;23.08;;;;;;;;;;6253714;28;20094;-69
2020/12/09 16:41:49;;;;;;;32.15;21.70;;;;;;;;;;6248948;28;20041;-70
2020/12/09 16:44:52;;;;;;;29.63;20.60;;;;;;;;;;6254276;28;20081;-70
2020/12/09 16:47:54;;;;;;;28.92;20.92;;;;;;;;;;6256384;28;20174;-70
2020/12/09 16:50:55;;;;;;;34.35;22.00;;;;;;;;;;6253812;28;20057;-71
2020/12/09 16:53:56;;;;;;;30.85;20.85;;;;;;;;;;6258602;28;20171;-70
2020/12/09 16:56:57;;;;;;;31.45;21.60;;;;;;;;;;6261044;28;20049;-70
2020/12/09 16:59:58;;;;;;;30.10;20.50;;;;;;;;;;6285929;28;20056;-69
2020/12/09 17:03:00;;;;;;;29.13;19.65;;;;;;;;;;6289259;28;20049;-69
2020/12/09 17:06:01;;;;;;;26.45;18.90;;;;;;;;;;6286092;28;20123;-69
2020/12/09 17:09:03;;;;;;;26.00;18.73;;;;;;;;;;6284588;28;20052;-70
2020/12/09 17:12:04;;;;;;;27.55;20.05;;;;;;;;;;6279790;28;20138;-70
2020/12/09 17:15:05;;;;;;;25.75;19.25;;;;;;;;;;6283214;28;20131;-69
2020/12/09 17:18:07;;;;;;;27.42;19.45;;;;;;;;;;6265681;28;20110;-71
2020/12/09 17:21:08;;;;;;;28.92;18.88;;;;;;;;;;6258394;28;20052;-69
2020/12/09 17:24:09;;;;;;;26.25;19.15;;;;;;;;;;6257423;28;20180;-69
2020/12/09 17:27:10;;;;;;;27.33;19.00;;;;;;;;;;6258785;28;20194;-69
2020/12/09 17:30:12;;;;;;;28.55;19.45;;;;;;;;;;6257389;28;20069;-69
2020/12/09 17:33:14;;;;;;;27.38;19.65;;;;;;;;;;6261297;28;20060;-68
2020/12/09 17:36:15;;;;;;;29.20;19.77;;;;;;;;;;6248666;28;20405;-71
2020/12/09 17:39:17;;;;;;;28.00;19.02;;;;;;;;;;6252360;28;20037;-68
2020/12/09 17:42:19;;;;;;;27.15;19.65;;;;;;;;;;6267994;28;20072;-69